Askholmen — V7RU4 — position and weather

sailwx.info

Track history (hours):
 
Tides and Currents Weather Stations Pressure Air Temp Water Temp Dewpoint Dewpoint Depression Visibility Wind Speed Wind Dir Waves Ship Positions

Askholmen

Last reported at 2018-Apr-14 22:50 UTC. Time now 2018-Jul-17 09:44 UTC.
Position N 22°31' E 069°02'.
Warning: this ship's position is months out of date.

Length 144 m; draft 7.8 m.

Type: Tanker. MMSI: 538005552.

Date/timePositionNaut miles runAvg speedWind from/ knotsBaromVisibWave heightAir tempDewpointWater temp
2018-Apr-14 22:50N 22°31' E 069°02'0 0.1
2018-Apr-14 22:26N 22°31' E 069°02'0 0.0
2018-Apr-14 21:56N 22°31' E 069°02'0 0.1
2018-Apr-14 21:26N 22°31' E 069°02'36 2.2
2018-Apr-14 04:59N 22°24' E 068°24'1411.9
2018-Apr-14 03:46N 22°30' E 068°10'2411.9
2018-Apr-14 01:42N 22°46' E 067°50'4111.5
2018-Apr-13 22:10N 23°13' E 067°16'  
2018-Apr-10 22:00N 24°39' E 066°52'79 4.5
2018-Apr-10 04:23N 23°24' E 067°21'711.7
2018-Apr-10 03:46N 23°17' E 067°22'4211.4
2018-Apr-10 00:04N 22°40' E 067°44'311.7
2018-Apr-09 23:47N 22°37' E 067°46'411.8
2018-Apr-09 23:28N 22°34' E 067°48'611.8
2018-Apr-09 22:55N 22°29' E 067°52'7211.7
2018-Apr-09 16:45N 21°37' E 068°46'1211.5
2018-Apr-09 15:43N 21°27' E 068°52'411.8
2018-Apr-09 15:25N 21°24' E 068°54'611.7
2018-Apr-09 14:56N 21°20' E 068°59'5711.5
2018-Apr-09 10:00N 20°44' E 069°45'1311.9
2018-Apr-09 08:53N 20°38' E 069°58'1311.4
2018-Apr-09 07:44N 20°36' E 070°12'911.6
2018-Apr-09 06:57N 20°34' E 070°22'611.8
2018-Apr-09 06:27N 20°33' E 070°28'611.5
2018-Apr-09 05:56N 20°32' E 070°34'511.5
2018-Apr-09 05:29N 20°31' E 070°39'611.3
2018-Apr-09 04:59N 20°30' E 070°45'510.8
2018-Apr-09 04:30N 20°32' E 070°51'611.5
2018-Apr-09 04:00N 20°32' E 070°57'611.3
2018-Apr-09 03:30N 20°30' E 071°03'610.9
2018-Apr-09 03:00N 20°27' E 071°07'510.9
2018-Apr-09 02:30N 20°27' E 071°13'611.2
2018-Apr-09 02:00N 20°28' E 071°18'1011.2
2018-Apr-09 01:07N 20°30' E 071°29'311.2
2018-Apr-09 00:52N 20°30' E 071°32'411.3
2018-Apr-09 00:30N 20°30' E 071°36'611.5
2018-Apr-09 00:00N 20°31' E 071°42'611.2
2018-Apr-08 23:29N 20°33' E 071°48'611.6
2018-Apr-08 23:00N 20°33' E 071°54'711.9
2018-Apr-08 22:27N 20°38' E 071°59'612.6
2018-Apr-08 21:59N 20°43' E 072°03'612.7
2018-Apr-08 21:30N 20°48' E 072°06'713.2
2018-Apr-08 21:00N 20°54' E 072°08'712.9
2018-Apr-08 20:29N 21°01' E 072°11'612.8
2018-Apr-08 19:59N 21°06' E 072°14'712.6
2018-Apr-08 19:24N 21°13' E 072°16'512.3
2018-Apr-08 19:00N 21°18' E 072°18'712.0
2018-Apr-08 18:27N 21°23' E 072°23'611.6
2018-Apr-08 17:56N 21°29' E 072°25'510.9
2018-Apr-08 17:30N 21°33' E 072°27'510.4
2018-Apr-08 17:00N 21°38' E 072°28'4 7.5
2018-Apr-08 16:30N 21°41' E 072°30'0 0.1
2018-Apr-08 14:29N 21°41' E 072°31'0 0.0
2018-Apr-08 13:53N 21°41' E 072°31'0 0.0
2018-Apr-08 13:29N 21°41' E 072°31'0 0.0
2018-Apr-08 12:59N 21°41' E 072°31'0 0.0
2018-Apr-08 12:23N 21°41' E 072°31'0 0.0
2018-Apr-08 11:59N 21°41' E 072°31'0 0.0
2018-Apr-08 11:23N 21°41' E 072°31'0 0.0
2018-Apr-08 10:59N 21°41' E 072°31'0 0.0
2018-Apr-07 18:47N 21°41' E 072°31'0 0.0
2018-Apr-07 18:29N 21°41' E 072°31'0 0.0
2018-Apr-07 17:53N 21°41' E 072°31'0 0.0
2018-Apr-07 17:29N 21°41' E 072°31'0 0.0
2018-Apr-07 16:59N 21°41' E 072°31'0 0.0
2018-Apr-07 16:29N 21°41' E 072°31'0 0.0
2018-Apr-07 15:53N 21°41' E 072°31'0 0.0
2018-Apr-07 15:29N 21°41' E 072°31'0 0.0
2018-Apr-07 14:53N 21°41' E 072°31'1 1.4
2018-Apr-07 14:08N 21°42' E 072°29'0 0.5
2018-Apr-07 13:45N 21°42' E 072°29'2 7.5
2018-Apr-07 13:30N 21°40' E 072°28'1 1.4
2018-Apr-07 12:52N 21°40' E 072°27'0 0.0
2018-Apr-07 12:22N 21°40' E 072°27'0 0.0
2018-Apr-07 11:58N 21°40' E 072°27'0 0.1
2018-Apr-07 11:22N 21°40' E 072°27'0 0.0
2018-Apr-07 10:58N 21°40' E 072°27'0 0.3
2018-Apr-07 10:28N 21°40' E 072°27'0 0.1
2018-Apr-07 09:58N 21°40' E 072°27'0 0.0
2018-Apr-07 09:28N 21°40' E 072°27'0 0.0
2018-Apr-07 08:58N 21°40' E 072°27'0 0.0
2018-Apr-07 08:28N 21°40' E 072°27'0 0.0
2018-Apr-07 07:58N 21°40' E 072°27'0 0.0
2018-Apr-07 07:28N 21°40' E 072°27'0 0.0
2018-Apr-07 06:58N 21°40' E 072°27'0 0.0
2018-Apr-07 06:28N 21°40' E 072°27'0 0.0
2018-Apr-07 05:58N 21°40' E 072°27'0 0.0
2018-Apr-07 05:22N 21°40' E 072°27'0 0.1
2018-Apr-07 04:58N 21°40' E 072°27'0 0.2
2018-Apr-07 04:28N 21°40' E 072°27'0 0.1
2018-Apr-07 03:58N 21°40' E 072°27'0 0.0
2018-Apr-07 03:28N 21°40' E 072°27'0 0.0
2018-Apr-07 02:58N 21°40' E 072°27'0 0.0
2018-Apr-07 02:22N 21°40' E 072°27'0 0.0
2018-Apr-07 01:58N 21°40' E 072°27'0 0.0
2018-Apr-07 01:28N 21°40' E 072°27'0 0.0
2018-Apr-07 00:58N 21°40' E 072°27'0 0.0
2018-Apr-07 00:28N 21°40' E 072°27'0 0.0
2018-Apr-06 23:58N 21°40' E 072°27'0 0.0
2018-Apr-06 23:28N 21°40' E 072°27'0 0.2
2018-Apr-06 22:34N 21°40' E 072°27'0 0.1
2018-Apr-06 22:28N 21°40' E 072°27'0 0.0
2018-Apr-06 21:52N 21°40' E 072°27'0 0.0
2018-Apr-06 21:28N 21°40' E 072°27'0 0.0
2018-Apr-06 20:58N 21°40' E 072°27'0 0.0
2018-Apr-06 20:28N 21°40' E 072°27'0 0.0
2018-Apr-06 19:58N 21°40' E 072°27'0 0.0
2018-Apr-06 19:28N 21°40' E 072°27'0 0.0
2018-Apr-06 18:58N 21°40' E 072°27'0 0.0
2018-Apr-06 18:28N 21°40' E 072°27'0 0.0
2018-Apr-06 17:58N 21°40' E 072°27'0 0.3
2018-Apr-06 17:30N 21°40' E 072°27'3 6.4
2018-Apr-06 17:00N 21°37' E 072°27'511.1
2018-Apr-06 16:30N 21°31' E 072°26'611.8
2018-Apr-06 16:00N 21°26' E 072°24'612.0
2018-Apr-06 15:30N 21°20' E 072°21'713.1
2018-Apr-06 15:00N 21°15' E 072°16'713.5
2018-Apr-06 14:30N 21°11' E 072°11'714.3
2018-Apr-06 14:00N 21°07' E 072°05'714.2
2018-Apr-06 13:30N 21°02' E 071°59'713.3
2018-Apr-06 13:00N 20°58' E 071°53'713.9
2018-Apr-06 12:30N 20°54' E 071°47'714.4
2018-Apr-06 12:00N 20°50' E 071°40'713.1
2018-Apr-06 11:31N 20°50' E 071°34'5 9.9
2018-Apr-06 11:00N 20°54' E 071°30'2 3.7
2018-Apr-06 10:30N 20°55' E 071°31'0 0.0
2018-Apr-06 08:35N 20°55' E 071°31'0 0.0
2018-Apr-06 08:23N 20°55' E 071°31'0 0.0
2018-Apr-06 07:17N 20°55' E 071°31'0 0.0
2018-Apr-05 20:59N 20°55' E 071°31'0 0.0
2018-Apr-05 19:23N 20°55' E 071°31'0 0.0
2018-Apr-05 18:41N 20°55' E 071°31'0 0.0
2018-Apr-05 18:29N 20°55' E 071°31'0 0.0
2018-Apr-05 17:59N 20°55' E 071°31'0 0.0
2018-Apr-05 17:29N 20°55' E 071°31'0 0.0
2018-Apr-05 16:59N 20°55' E 071°31'0 0.0
2018-Apr-05 16:29N 20°55' E 071°31'0 0.0
2018-Apr-05 15:53N 20°55' E 071°31'0 0.0
2018-Apr-05 15:29N 20°55' E 071°31'0 0.0
2018-Apr-05 14:59N 20°55' E 071°31'0 0.0
2018-Apr-05 14:23N 20°55' E 071°31'0 0.0
2018-Apr-05 13:59N 20°55' E 071°31'0 0.0
2018-Apr-05 13:29N 20°55' E 071°31'0 0.0
2018-Apr-05 12:59N 20°55' E 071°31'0 0.0
2018-Apr-05 12:29N 20°55' E 071°31'0 0.0
2018-Apr-05 11:53N 20°55' E 071°31'0 0.0
2018-Apr-05 11:29N 20°55' E 071°31'0 0.0
2018-Apr-05 10:53N 20°55' E 071°31'0 0.0
2018-Apr-05 07:17N 20°55' E 071°31'0 0.0
2018-Apr-05 06:53N 20°55' E 071°31'  
Track history (hours):
 
Tides and Currents Weather Stations Pressure Air Temp Water Temp Dewpoint Dewpoint Depression Visibility Wind Speed Wind Dir Waves Ship Positions

Askholmen

Last reported at 2018-Apr-14 22:50 UTC. Time now 2018-Jul-17 09:44 UTC.
Position N 22°31' E 069°02'.
Warning: this ship's position is months out of date.

Length 144 m; draft 7.8 m.

Type: Tanker. MMSI: 538005552.

Date/timePositionNaut miles runAvg speedWind from/ knotsBaromVisibWave heightAir tempDewpointWater temp
2018-Apr-14 22:50N 22°31' E 069°02'0 0.1
2018-Apr-14 22:26N 22°31' E 069°02'0 0.0
2018-Apr-14 21:56N 22°31' E 069°02'0 0.1
2018-Apr-14 21:26N 22°31' E 069°02'36 2.2
2018-Apr-14 04:59N 22°24' E 068°24'1411.9
2018-Apr-14 03:46N 22°30' E 068°10'2411.9
2018-Apr-14 01:42N 22°46' E 067°50'4111.5
2018-Apr-13 22:10N 23°13' E 067°16'  
2018-Apr-10 22:00N 24°39' E 066°52'79 4.5
2018-Apr-10 04:23N 23°24' E 067°21'711.7
2018-Apr-10 03:46N 23°17' E 067°22'4211.4
2018-Apr-10 00:04N 22°40' E 067°44'311.7
2018-Apr-09 23:47N 22°37' E 067°46'411.8
2018-Apr-09 23:28N 22°34' E 067°48'611.8
2018-Apr-09 22:55N 22°29' E 067°52'7211.7
2018-Apr-09 16:45N 21°37' E 068°46'1211.5
2018-Apr-09 15:43N 21°27' E 068°52'411.8
2018-Apr-09 15:25N 21°24' E 068°54'611.7
2018-Apr-09 14:56N 21°20' E 068°59'5711.5
2018-Apr-09 10:00N 20°44' E 069°45'1311.9
2018-Apr-09 08:53N 20°38' E 069°58'1311.4
2018-Apr-09 07:44N 20°36' E 070°12'911.6
2018-Apr-09 06:57N 20°34' E 070°22'611.8
2018-Apr-09 06:27N 20°33' E 070°28'611.5
2018-Apr-09 05:56N 20°32' E 070°34'511.5
2018-Apr-09 05:29N 20°31' E 070°39'611.3
2018-Apr-09 04:59N 20°30' E 070°45'510.8
2018-Apr-09 04:30N 20°32' E 070°51'611.5
2018-Apr-09 04:00N 20°32' E 070°57'611.3
2018-Apr-09 03:30N 20°30' E 071°03'610.9
2018-Apr-09 03:00N 20°27' E 071°07'510.9
2018-Apr-09 02:30N 20°27' E 071°13'611.2
2018-Apr-09 02:00N 20°28' E 071°18'1011.2
2018-Apr-09 01:07N 20°30' E 071°29'311.2
2018-Apr-09 00:52N 20°30' E 071°32'411.3
2018-Apr-09 00:30N 20°30' E 071°36'611.5
2018-Apr-09 00:00N 20°31' E 071°42'611.2
2018-Apr-08 23:29N 20°33' E 071°48'611.6
2018-Apr-08 23:00N 20°33' E 071°54'711.9
2018-Apr-08 22:27N 20°38' E 071°59'612.6
2018-Apr-08 21:59N 20°43' E 072°03'612.7
2018-Apr-08 21:30N 20°48' E 072°06'713.2
2018-Apr-08 21:00N 20°54' E 072°08'712.9
2018-Apr-08 20:29N 21°01' E 072°11'612.8
2018-Apr-08 19:59N 21°06' E 072°14'712.6
2018-Apr-08 19:24N 21°13' E 072°16'512.3
2018-Apr-08 19:00N 21°18' E 072°18'712.0
2018-Apr-08 18:27N 21°23' E 072°23'611.6
2018-Apr-08 17:56N 21°29' E 072°25'510.9
2018-Apr-08 17:30N 21°33' E 072°27'510.4
2018-Apr-08 17:00N 21°38' E 072°28'4 7.5
2018-Apr-08 16:30N 21°41' E 072°30'0 0.1
2018-Apr-08 14:29N 21°41' E 072°31'0 0.0
2018-Apr-08 13:53N 21°41' E 072°31'0 0.0
2018-Apr-08 13:29N 21°41' E 072°31'0 0.0
2018-Apr-08 12:59N 21°41' E 072°31'0 0.0
2018-Apr-08 12:23N 21°41' E 072°31'0 0.0
2018-Apr-08 11:59N 21°41' E 072°31'0 0.0
2018-Apr-08 11:23N 21°41' E 072°31'0 0.0
2018-Apr-08 10:59N 21°41' E 072°31'0 0.0
2018-Apr-07 18:47N 21°41' E 072°31'0 0.0
2018-Apr-07 18:29N 21°41' E 072°31'0 0.0
2018-Apr-07 17:53N 21°41' E 072°31'0 0.0
2018-Apr-07 17:29N 21°41' E 072°31'0 0.0
2018-Apr-07 16:59N 21°41' E 072°31'0 0.0
2018-Apr-07 16:29N 21°41' E 072°31'0 0.0
2018-Apr-07 15:53N 21°41' E 072°31'0 0.0
2018-Apr-07 15:29N 21°41' E 072°31'0 0.0
2018-Apr-07 14:53N 21°41' E 072°31'1 1.4
2018-Apr-07 14:08N 21°42' E 072°29'0 0.5
2018-Apr-07 13:45N 21°42' E 072°29'2 7.5
2018-Apr-07 13:30N 21°40' E 072°28'1 1.4
2018-Apr-07 12:52N 21°40' E 072°27'0 0.0
2018-Apr-07 12:22N 21°40' E 072°27'0 0.0
2018-Apr-07 11:58N 21°40' E 072°27'0 0.1
2018-Apr-07 11:22N 21°40' E 072°27'0 0.0
2018-Apr-07 10:58N 21°40' E 072°27'0 0.3
2018-Apr-07 10:28N 21°40' E 072°27'0 0.1
2018-Apr-07 09:58N 21°40' E 072°27'0 0.0
2018-Apr-07 09:28N 21°40' E 072°27'0 0.0
2018-Apr-07 08:58N 21°40' E 072°27'0 0.0
2018-Apr-07 08:28N 21°40' E 072°27'0 0.0
2018-Apr-07 07:58N 21°40' E 072°27'0 0.0
2018-Apr-07 07:28N 21°40' E 072°27'0 0.0
2018-Apr-07 06:58N 21°40' E 072°27'0 0.0
2018-Apr-07 06:28N 21°40' E 072°27'0 0.0
2018-Apr-07 05:58N 21°40' E 072°27'0 0.0
2018-Apr-07 05:22N 21°40' E 072°27'0 0.1
2018-Apr-07 04:58N 21°40' E 072°27'0 0.2
2018-Apr-07 04:28N 21°40' E 072°27'0 0.1
2018-Apr-07 03:58N 21°40' E 072°27'0 0.0
2018-Apr-07 03:28N 21°40' E 072°27'0 0.0
2018-Apr-07 02:58N 21°40' E 072°27'0 0.0
2018-Apr-07 02:22N 21°40' E 072°27'0 0.0
2018-Apr-07 01:58N 21°40' E 072°27'0 0.0
2018-Apr-07 01:28N 21°40' E 072°27'0 0.0
2018-Apr-07 00:58N 21°40' E 072°27'0 0.0
2018-Apr-07 00:28N 21°40' E 072°27'0 0.0
2018-Apr-06 23:58N 21°40' E 072°27'0 0.0
2018-Apr-06 23:28N 21°40' E 072°27'0 0.2
2018-Apr-06 22:34N 21°40' E 072°27'0 0.1
2018-Apr-06 22:28N 21°40' E 072°27'0 0.0
2018-Apr-06 21:52N 21°40' E 072°27'0 0.0
2018-Apr-06 21:28N 21°40' E 072°27'0 0.0
2018-Apr-06 20:58N 21°40' E 072°27'0 0.0
2018-Apr-06 20:28N 21°40' E 072°27'0 0.0
2018-Apr-06 19:58N 21°40' E 072°27'0 0.0
2018-Apr-06 19:28N 21°40' E 072°27'0 0.0
2018-Apr-06 18:58N 21°40' E 072°27'0 0.0
2018-Apr-06 18:28N 21°40' E 072°27'0 0.0
2018-Apr-06 17:58N 21°40' E 072°27'0 0.3
2018-Apr-06 17:30N 21°40' E 072°27'3 6.4
2018-Apr-06 17:00N 21°37' E 072°27'511.1
2018-Apr-06 16:30N 21°31' E 072°26'611.8
2018-Apr-06 16:00N 21°26' E 072°24'612.0
2018-Apr-06 15:30N 21°20' E 072°21'713.1
2018-Apr-06 15:00N 21°15' E 072°16'713.5
2018-Apr-06 14:30N 21°11' E 072°11'714.3
2018-Apr-06 14:00N 21°07' E 072°05'714.2
2018-Apr-06 13:30N 21°02' E 071°59'713.3
2018-Apr-06 13:00N 20°58' E 071°53'713.9
2018-Apr-06 12:30N 20°54' E 071°47'714.4
2018-Apr-06 12:00N 20°50' E 071°40'713.1
2018-Apr-06 11:31N 20°50' E 071°34'5 9.9
2018-Apr-06 11:00N 20°54' E 071°30'2 3.7
2018-Apr-06 10:30N 20°55' E 071°31'0 0.0
2018-Apr-06 08:35N 20°55' E 071°31'0 0.0
2018-Apr-06 08:23N 20°55' E 071°31'0 0.0
2018-Apr-06 07:17N 20°55' E 071°31'0 0.0
2018-Apr-05 20:59N 20°55' E 071°31'0 0.0
2018-Apr-05 19:23N 20°55' E 071°31'0 0.0
2018-Apr-05 18:41N 20°55' E 071°31'0 0.0
2018-Apr-05 18:29N 20°55' E 071°31'0 0.0
2018-Apr-05 17:59N 20°55' E 071°31'0 0.0
2018-Apr-05 17:29N 20°55' E 071°31'0 0.0
2018-Apr-05 16:59N 20°55' E 071°31'0 0.0
2018-Apr-05 16:29N 20°55' E 071°31'0 0.0
2018-Apr-05 15:53N 20°55' E 071°31'0 0.0
2018-Apr-05 15:29N 20°55' E 071°31'0 0.0
2018-Apr-05 14:59N 20°55' E 071°31'0 0.0
2018-Apr-05 14:23N 20°55' E 071°31'0 0.0
2018-Apr-05 13:59N 20°55' E 071°31'0 0.0
2018-Apr-05 13:29N 20°55' E 071°31'0 0.0
2018-Apr-05 12:59N 20°55' E 071°31'0 0.0
2018-Apr-05 12:29N 20°55' E 071°31'0 0.0
2018-Apr-05 11:53N 20°55' E 071°31'0 0.0
2018-Apr-05 11:29N 20°55' E 071°31'0 0.0
2018-Apr-05 10:53N 20°55' E 071°31'0 0.0
2018-Apr-05 07:17N 20°55' E 071°31'0 0.0
2018-Apr-05 06:53N 20°55' E 071°31'  

Dump ship's entire track history